createdAt,value
2022-12-18T00:00:06.877Z,28.60
2022-12-18T00:03:01.733Z,38.30
2022-12-18T00:05:29.932Z,38.40
2022-12-18T00:07:57.904Z,27.80
2022-12-18T00:10:26.044Z,37.20
2022-12-18T00:12:54.105Z,40.30
2022-12-18T00:15:22.114Z,38.10
2022-12-18T00:17:50.152Z,37.80
2022-12-18T00:20:22.735Z,42.40
2022-12-18T00:22:50.692Z,39.80
2022-12-18T00:25:18.823Z,41.40
2022-12-18T00:27:46.986Z,43.30
2022-12-18T00:30:15.658Z,19.90
2022-12-18T00:32:43.852Z,22.10
2022-12-18T00:35:12.206Z,36.20
2022-12-18T00:37:40.191Z,43.20
2022-12-18T00:40:08.923Z,44.40
2022-12-18T00:42:56.866Z,34.10
2022-12-18T00:45:27.504Z,38.80
2022-12-18T00:47:56.402Z,29.60
2022-12-18T00:50:26.111Z,30.30
2022-12-18T00:52:54.129Z,35.10
2022-12-18T00:55:22.146Z,37.60
2022-12-18T00:57:53.296Z,35.60
2022-12-18T01:00:21.550Z,18.00
2022-12-18T01:02:54.557Z,37.20
2022-12-18T01:05:22.889Z,32.60
2022-12-18T01:07:50.966Z,33.80
2022-12-18T01:10:19.311Z,49.70
2022-12-18T01:12:47.389Z,26.50
2022-12-18T01:15:17.038Z,40.30
2022-12-18T01:17:45.147Z,36.90
2022-12-18T01:20:14.379Z,33.00
2022-12-18T01:22:42.371Z,39.50
2022-12-18T01:25:10.798Z,37.90
2022-12-18T01:27:39.114Z,29.50
2022-12-18T01:30:07.951Z,19.60
2022-12-18T01:32:38.656Z,34.40
2022-12-18T01:35:07.377Z,36.70
2022-12-18T01:37:35.377Z,37.80
2022-12-18T01:40:03.736Z,40.20
2022-12-18T01:42:31.730Z,33.10
2022-12-18T01:45:08.040Z,33.20
2022-12-18T01:47:49.360Z,28.30
2022-12-18T01:50:22.281Z,33.50
2022-12-18T01:52:54.969Z,30.40
2022-12-18T01:57:59.893Z,37.60
2022-12-18T02:00:28.948Z,33.00
2022-12-18T02:02:57.351Z,39.00
2022-12-18T02:05:56.663Z,32.20
2022-12-18T02:08:54.051Z,39.40
2022-12-18T02:11:56.328Z,35.50
2022-12-18T02:14:43.806Z,32.50
2022-12-18T02:17:18.931Z,39.10
2022-12-18T02:20:12.462Z,39.30
2022-12-18T02:23:15.805Z,24.70
2022-12-18T02:26:15.311Z,30.50
2022-12-18T02:28:50.336Z,34.00
2022-12-18T02:31:25.343Z,20.30
2022-12-18T02:33:59.827Z,43.10
2022-12-18T02:36:30.268Z,42.80
2022-12-18T02:39:00.146Z,39.20
2022-12-18T02:41:29.711Z,33.90
2022-12-18T02:44:00.901Z,31.50
2022-12-18T02:46:36.146Z,32.90
2022-12-18T02:49:20.059Z,32.40
2022-12-18T02:52:00.251Z,25.20
2022-12-18T02:54:46.699Z,34.50
2022-12-18T02:57:18.988Z,35.50
2022-12-18T03:00:01.835Z,39.20
2022-12-18T03:02:50.249Z,39.80
2022-12-18T03:05:26.139Z,32.80
2022-12-18T03:08:05.049Z,51.10
2022-12-18T03:10:40.937Z,27.90
2022-12-18T03:13:15.021Z,33.90
2022-12-18T03:15:49.075Z,24.80
2022-12-18T03:18:30.846Z,23.10
2022-12-18T03:21:04.085Z,32.10
2022-12-18T03:23:46.334Z,30.20
2022-12-18T03:26:19.043Z,37.20
2022-12-18T03:29:00.793Z,27.20
2022-12-18T03:31:32.314Z,13.70
2022-12-18T03:34:04.431Z,16.60
2022-12-18T03:36:41.479Z,26.10
2022-12-18T03:39:12.498Z,36.00
2022-12-18T03:42:06.023Z,37.50
2022-12-18T03:44:48.391Z,40.70
2022-12-18T03:47:31.474Z,38.90
2022-12-18T03:50:30.295Z,46.60
2022-12-18T03:53:16.592Z,42.10
2022-12-18T03:55:47.538Z,34.70
2022-12-18T03:58:20.802Z,33.30
2022-12-18T04:01:00.841Z,35.80
2022-12-18T04:03:32.170Z,39.10
2022-12-18T04:06:02.203Z,40.80
2022-12-18T04:08:31.078Z,35.70
2022-12-18T04:11:04.202Z,40.30
2022-12-18T04:13:38.569Z,37.90
2022-12-18T04:16:12.925Z,33.90
2022-12-18T04:18:42.573Z,33.70
2022-12-18T04:21:11.567Z,39.70
2022-12-18T04:23:39.999Z,39.80
2022-12-18T04:26:33.938Z,34.60
2022-12-18T04:29:11.588Z,18.90
2022-12-18T04:31:39.731Z,32.70
2022-12-18T04:34:08.360Z,14.30
2022-12-18T04:36:40.782Z,38.90
2022-12-18T04:39:09.047Z,43.80
2022-12-18T04:41:39.512Z,41.00
2022-12-18T04:44:07.698Z,32.90
2022-12-18T04:46:35.811Z,45.40
2022-12-18T04:49:03.851Z,63.40
2022-12-18T04:51:32.060Z,36.60
2022-12-18T04:54:00.128Z,29.00
2022-12-18T04:56:28.107Z,36.00
2022-12-18T04:58:56.089Z,31.20
2022-12-18T05:01:26.089Z,42.20
2022-12-18T05:03:56.280Z,43.10
2022-12-18T05:06:24.305Z,43.10
2022-12-18T05:08:52.498Z,50.20
2022-12-18T05:11:20.440Z,43.20
2022-12-18T05:13:48.803Z,43.30
2022-12-18T05:16:16.886Z,45.60
2022-12-18T05:18:45.067Z,41.20
2022-12-18T05:21:13.086Z,40.80
2022-12-18T05:23:41.528Z,37.50
2022-12-18T05:26:10.505Z,29.40
2022-12-18T05:28:39.044Z,25.80
2022-12-18T05:31:07.259Z,49.20
2022-12-18T05:33:36.372Z,36.20
2022-12-18T05:36:07.783Z,28.30
2022-12-18T05:38:37.712Z,50.40
2022-12-18T05:41:07.082Z,38.70
2022-12-18T05:43:37.257Z,19.90
2022-12-18T05:46:12.509Z,47.40
2022-12-18T05:48:40.618Z,48.30
2022-12-18T05:51:15.519Z,34.70
2022-12-18T05:53:44.590Z,31.20
2022-12-18T05:56:15.882Z,50.50
2022-12-18T05:58:44.837Z,33.10
2022-12-18T06:01:16.300Z,43.80
2022-12-18T06:03:45.152Z,26.90
2022-12-18T06:06:19.274Z,31.10
2022-12-18T06:08:51.010Z,36.40
2022-12-18T06:11:21.598Z,26.70
2022-12-18T06:13:58.265Z,26.50
2022-12-18T06:16:28.842Z,50.30
2022-12-18T06:18:58.578Z,43.80
2022-12-18T06:21:29.257Z,47.30
2022-12-18T06:23:57.516Z,41.00
2022-12-18T06:26:28.261Z,49.40
2022-12-18T06:28:57.195Z,46.90
2022-12-18T06:31:26.405Z,49.40
2022-12-18T06:33:54.505Z,43.40
2022-12-18T06:36:23.202Z,38.70
2022-12-18T06:38:51.370Z,38.20
2022-12-18T06:41:21.349Z,22.40
2022-12-18T06:43:49.555Z,66.90
2022-12-18T06:46:17.784Z,35.80
2022-12-18T06:48:49.618Z,39.50
2022-12-18T06:51:22.758Z,42.80
2022-12-18T06:53:51.253Z,41.10
2022-12-18T06:56:19.443Z,22.50
2022-12-18T06:58:50.956Z,42.50
2022-12-18T07:01:19.243Z,46.00
2022-12-18T07:03:54.663Z,25.60
2022-12-18T07:06:25.650Z,46.90
2022-12-18T07:08:55.354Z,38.50
2022-12-18T07:11:24.102Z,40.50
2022-12-18T07:13:54.101Z,36.00
2022-12-18T07:16:25.556Z,36.50
2022-12-18T07:18:57.454Z,37.40
2022-12-18T07:21:26.409Z,37.60
2022-12-18T07:23:54.986Z,38.90
2022-12-18T07:26:23.762Z,20.50
2022-12-18T07:28:55.467Z,18.00
2022-12-18T07:31:23.669Z,38.00
2022-12-18T07:33:52.424Z,34.80
2022-12-18T07:36:21.124Z,38.10
2022-12-18T07:38:50.485Z,30.40
2022-12-18T07:41:19.810Z,36.10
2022-12-18T07:43:48.490Z,41.10
2022-12-18T07:46:17.529Z,39.30
2022-12-18T07:48:49.849Z,32.70
2022-12-18T07:53:49.268Z,34.40
2022-12-18T07:56:30.441Z,39.40
2022-12-18T07:59:00.318Z,37.60
2022-12-18T08:01:29.174Z,38.40
2022-12-18T08:03:58.536Z,66.00
2022-12-18T08:06:26.766Z,48.10
2022-12-18T08:08:56.321Z,18.60
2022-12-18T08:11:27.131Z,23.30
2022-12-18T08:13:56.560Z,27.50
2022-12-18T08:16:24.811Z,20.30
2022-12-18T08:18:55.704Z,35.80
2022-12-18T08:21:29.443Z,31.50
2022-12-18T08:24:00.665Z,18.20
2022-12-18T08:26:31.959Z,15.10
2022-12-18T08:29:01.104Z,15.80
2022-12-18T08:31:30.845Z,17.40
2022-12-18T08:33:59.019Z,24.70
2022-12-18T08:36:27.557Z,26.90
2022-12-18T08:38:55.678Z,30.10
2022-12-18T08:41:24.138Z,31.20
2022-12-18T08:44:10.934Z,31.80
2022-12-18T08:46:41.351Z,30.10
2022-12-18T08:49:11.241Z,20.80
2022-12-18T08:51:41.083Z,26.40
2022-12-18T08:54:14.944Z,16.90
2022-12-18T08:56:43.148Z,28.10
2022-12-18T08:59:17.296Z,26.50
2022-12-18T09:01:49.167Z,25.50
2022-12-18T09:04:17.350Z,28.50
2022-12-18T09:06:45.350Z,27.20
2022-12-18T09:09:14.453Z,20.50
2022-12-18T09:11:42.614Z,19.60
2022-12-18T09:14:11.273Z,26.90
2022-12-18T09:16:39.466Z,31.90
2022-12-18T09:19:07.736Z,28.00
2022-12-18T09:21:37.219Z,29.80
2022-12-18T09:24:08.960Z,27.00
2022-12-18T09:26:47.853Z,27.20
2022-12-18T09:29:18.827Z,27.00
2022-12-18T09:31:47.720Z,22.90
2022-12-18T09:34:16.750Z,25.60
2022-12-18T09:36:44.922Z,24.20
2022-12-18T09:39:13.067Z,22.90
2022-12-18T09:41:51.847Z,25.10
2022-12-18T09:44:41.466Z,20.10
2022-12-18T09:47:16.079Z,22.80
2022-12-18T09:49:47.330Z,20.40
2022-12-18T09:52:22.770Z,18.60
2022-12-18T09:55:38.160Z,22.70
2022-12-18T09:58:41.595Z,23.40
2022-12-18T10:01:17.805Z,20.30
2022-12-18T10:03:48.201Z,15.70
2022-12-18T10:06:23.467Z,11.90
2022-12-18T10:09:17.405Z,18.60
2022-12-18T10:11:55.344Z,19.90
2022-12-18T10:14:43.762Z,16.70
2022-12-18T10:17:21.757Z,14.80
2022-12-18T10:20:08.899Z,13.10
2022-12-18T10:22:49.230Z,15.60
2022-12-18T10:25:35.514Z,16.20
2022-12-18T10:28:18.689Z,12.10
2022-12-18T10:30:47.022Z,10.20
2022-12-18T10:33:20.018Z,10.40
2022-12-18T10:35:51.169Z,11.40
2022-12-18T10:38:20.252Z,7.70
2022-12-18T10:40:59.738Z,12.50
2022-12-18T10:43:38.827Z,15.80
2022-12-18T10:46:19.006Z,12.90
2022-12-18T10:49:06.111Z,10.50
2022-12-18T10:51:39.192Z,11.00
2022-12-18T10:54:25.791Z,15.80
2022-12-18T10:57:33.843Z,18.20
2022-12-18T11:00:29.540Z,20.70
2022-12-18T11:03:00.312Z,35.80
2022-12-18T11:05:40.327Z,23.00
2022-12-18T11:08:30.323Z,17.50
2022-12-18T11:10:58.770Z,13.80
2022-12-18T11:13:30.564Z,14.20
2022-12-18T11:16:00.362Z,13.50
2022-12-18T11:18:41.190Z,11.80
2022-12-18T11:21:12.940Z,9.70
2022-12-18T11:23:56.430Z,11.30
2022-12-18T11:26:37.514Z,19.20
2022-12-18T11:29:24.812Z,13.30
2022-12-18T11:31:53.465Z,16.30
2022-12-18T11:34:32.255Z,13.40
2022-12-18T11:37:02.791Z,18.60
2022-12-18T11:40:32.813Z,16.70
2022-12-18T11:43:18.654Z,16.80
2022-12-18T11:45:54.568Z,13.70
2022-12-18T11:48:35.992Z,16.20
2022-12-18T11:51:11.387Z,13.10
2022-12-18T11:53:41.004Z,8.30
2022-12-18T11:56:40.876Z,16.30
2022-12-18T11:59:20.024Z,12.60
2022-12-18T12:02:04.708Z,11.30
2022-12-18T12:04:33.095Z,13.20
2022-12-18T12:07:46.462Z,10.50
2022-12-18T12:10:56.391Z,13.90
2022-12-18T12:13:50.677Z,17.70
2022-12-18T12:16:22.860Z,17.50
2022-12-18T12:19:32.051Z,13.90
2022-12-18T12:22:37.424Z,16.00
2022-12-18T12:25:27.863Z,17.30
2022-12-18T12:28:16.896Z,15.60
2022-12-18T12:30:45.435Z,17.80
2022-12-18T12:33:34.794Z,21.90
2022-12-18T12:36:09.880Z,18.70
2022-12-18T12:38:49.782Z,17.50
2022-12-18T12:41:45.247Z,14.90
2022-12-18T12:44:39.482Z,10.00
2022-12-18T12:47:26.459Z,11.60
2022-12-18T12:49:56.366Z,12.70
2022-12-18T12:52:43.395Z,23.40
2022-12-18T12:55:26.518Z,17.50
2022-12-18T12:58:20.338Z,18.60
2022-12-18T13:00:55.944Z,17.40
2022-12-18T13:03:48.400Z,18.50
2022-12-18T13:06:25.761Z,18.70
2022-12-18T13:09:01.977Z,15.80
2022-12-18T13:12:00.033Z,14.50
2022-12-18T13:14:32.302Z,20.90
2022-12-18T13:17:18.452Z,22.00
2022-12-18T13:19:51.627Z,24.60
2022-12-18T13:22:33.669Z,24.10
2022-12-18T13:25:02.398Z,31.50
2022-12-18T13:27:58.103Z,20.30
2022-12-18T13:30:52.306Z,24.30
2022-12-18T13:33:50.788Z,16.30
2022-12-18T13:36:32.084Z,26.60
2022-12-18T13:42:59.967Z,28.40
2022-12-18T13:45:52.575Z,31.00
2022-12-18T13:48:24.734Z,29.60
2022-12-18T13:51:09.523Z,51.10
2022-12-18T13:53:53.578Z,31.30
2022-12-18T13:56:31.586Z,40.10
2022-12-18T13:59:14.550Z,46.20
2022-12-18T14:01:47.469Z,26.90
2022-12-18T14:07:04.881Z,30.20
2022-12-18T14:09:44.439Z,36.30
2022-12-18T14:12:41.617Z,27.50
2022-12-18T14:15:27.687Z,28.20
2022-12-18T14:17:58.975Z,26.90
2022-12-18T14:20:29.341Z,23.60
2022-12-18T14:23:00.882Z,27.60
2022-12-18T14:25:36.402Z,15.60
2022-12-18T14:28:15.755Z,17.40
2022-12-18T14:30:46.116Z,20.70
2022-12-18T14:33:23.117Z,26.10
2022-12-18T14:36:06.518Z,26.60
2022-12-18T14:38:41.342Z,23.90
2022-12-18T14:41:14.813Z,19.40
2022-12-18T14:43:45.336Z,33.30
2022-12-18T14:46:52.621Z,16.70
2022-12-18T14:49:33.908Z,17.70
2022-12-18T14:52:07.525Z,25.60
2022-12-18T14:54:38.489Z,34.60
2022-12-18T14:57:36.769Z,23.60
2022-12-18T15:00:07.714Z,28.10
2022-12-18T15:02:37.482Z,26.30
2022-12-18T15:05:30.588Z,20.40
2022-12-18T15:08:01.133Z,25.90
2022-12-18T15:10:32.029Z,32.90
2022-12-18T15:13:01.526Z,39.80
2022-12-18T15:15:38.816Z,28.90
2022-12-18T15:18:11.393Z,31.70
2022-12-18T15:20:53.292Z,34.60
2022-12-18T15:23:25.889Z,31.40
2022-12-18T15:26:06.458Z,32.30
2022-12-18T15:28:44.363Z,35.10
2022-12-18T15:31:16.206Z,31.60
2022-12-18T15:34:04.159Z,30.80
2022-12-18T15:36:32.269Z,22.00
2022-12-18T15:39:02.923Z,36.50
2022-12-18T15:41:36.127Z,37.90
2022-12-18T15:44:26.806Z,42.10
2022-12-18T15:46:54.995Z,45.70
2022-12-18T15:49:23.042Z,29.40
2022-12-18T15:51:55.736Z,30.20
2022-12-18T15:54:43.837Z,20.70
2022-12-18T15:57:24.595Z,28.30
2022-12-18T15:59:55.185Z,45.00
2022-12-18T16:02:24.456Z,37.70
2022-12-18T16:04:53.448Z,39.90
2022-12-18T16:07:24.624Z,39.20
2022-12-18T16:09:53.655Z,21.30
2022-12-18T16:12:24.367Z,33.30
2022-12-18T16:14:52.412Z,29.00
2022-12-18T16:17:20.477Z,34.30
2022-12-18T16:19:48.573Z,43.70
2022-12-18T16:22:23.285Z,52.40
2022-12-18T16:24:53.182Z,52.60
2022-12-18T16:27:22.351Z,52.50
2022-12-18T16:29:51.304Z,46.10
2022-12-18T16:32:22.252Z,59.10
2022-12-18T16:34:51.986Z,57.80
2022-12-18T16:37:20.130Z,41.40
2022-12-18T16:39:48.092Z,43.20
2022-12-18T16:42:20.714Z,46.80
2022-12-18T16:44:50.391Z,22.40
2022-12-18T16:47:19.660Z,52.60
2022-12-18T16:49:51.585Z,48.70
2022-12-18T16:52:20.579Z,43.70
2022-12-18T16:54:51.888Z,42.40
2022-12-18T16:57:21.633Z,45.50
2022-12-18T16:59:53.415Z,51.70
2022-12-18T17:02:24.677Z,32.00
2022-12-18T17:04:57.534Z,29.30
2022-12-18T17:07:26.992Z,20.00
2022-12-18T17:09:55.556Z,36.70
2022-12-18T17:12:24.118Z,48.20
2022-12-18T17:14:54.988Z,53.70
2022-12-18T17:17:29.781Z,64.80
2022-12-18T17:19:58.129Z,69.00
2022-12-18T17:22:26.506Z,81.70
2022-12-18T17:25:25.457Z,109.80
2022-12-18T17:28:15.445Z,85.30
2022-12-18T17:30:43.551Z,67.90
2022-12-18T17:33:11.668Z,53.50
2022-12-18T17:35:39.728Z,54.40
2022-12-18T17:38:09.236Z,25.20
2022-12-18T17:40:41.905Z,27.70
2022-12-18T17:43:14.289Z,57.10
2022-12-18T17:45:42.453Z,40.90
2022-12-18T17:48:11.058Z,37.00
2022-12-18T17:50:39.435Z,31.40
2022-12-18T17:53:07.677Z,28.10
2022-12-18T17:55:36.077Z,40.80
2022-12-18T17:58:05.148Z,55.90
2022-12-18T18:00:58.678Z,54.50
2022-12-18T18:03:27.252Z,62.80
2022-12-18T18:05:59.500Z,70.10
2022-12-18T18:08:29.743Z,76.00
2022-12-18T18:11:26.528Z,83.70
2022-12-18T18:14:04.760Z,63.70
2022-12-18T18:16:40.942Z,72.80
2022-12-18T18:19:17.632Z,68.50
2022-12-18T18:21:48.478Z,59.20
2022-12-18T18:24:19.682Z,25.60
2022-12-18T18:26:47.975Z,29.20
2022-12-18T18:29:19.787Z,47.90
2022-12-18T18:31:48.543Z,29.50
2022-12-18T18:34:19.088Z,29.90
2022-12-18T18:36:47.330Z,51.50
2022-12-18T18:39:15.591Z,71.30
2022-12-18T18:41:46.472Z,72.90
2022-12-18T18:44:18.053Z,70.00
2022-12-18T18:46:46.436Z,85.10
2022-12-18T18:49:17.539Z,86.70
2022-12-18T18:51:45.570Z,86.00
2022-12-18T18:54:13.946Z,93.80
2022-12-18T18:59:31.952Z,44.40
2022-12-18T19:02:04.210Z,33.50
2022-12-18T19:07:02.275Z,57.50
2022-12-18T19:09:31.351Z,76.60
2022-12-18T19:12:17.688Z,79.60
2022-12-18T19:14:45.951Z,29.30
2022-12-18T19:17:14.010Z,38.40
2022-12-18T19:19:42.414Z,34.90
2022-12-18T19:22:11.354Z,56.50
2022-12-18T19:24:39.447Z,74.50
2022-12-18T19:27:07.465Z,79.40
2022-12-18T19:29:35.509Z,71.00
2022-12-18T19:32:05.325Z,37.10
2022-12-18T19:34:33.368Z,76.00
2022-12-18T19:37:02.466Z,81.30
2022-12-18T19:39:37.406Z,83.20
2022-12-18T19:42:05.525Z,35.60
2022-12-18T19:44:33.597Z,34.90
2022-12-18T19:47:01.623Z,70.90
2022-12-18T19:49:30.793Z,76.60
2022-12-18T19:51:58.865Z,69.90
2022-12-18T19:54:27.054Z,28.20
2022-12-18T19:56:55.063Z,59.20
2022-12-18T19:59:23.476Z,44.10
2022-12-18T20:01:54.339Z,93.80
2022-12-18T20:04:22.535Z,58.60
2022-12-18T20:06:52.593Z,88.30
2022-12-18T20:09:21.623Z,96.00
2022-12-18T20:11:49.818Z,70.60
2022-12-18T20:14:23.234Z,21.30
2022-12-18T20:16:53.432Z,62.80
2022-12-18T20:19:22.860Z,74.00
2022-12-18T20:21:51.262Z,70.80
2022-12-18T20:24:19.426Z,74.50
2022-12-18T20:26:47.566Z,50.80
2022-12-18T20:29:15.719Z,39.80
2022-12-18T20:31:43.908Z,92.70
2022-12-18T20:34:12.196Z,99.00
2022-12-18T20:36:42.242Z,103.30
2022-12-18T20:39:20.305Z,96.20
2022-12-18T20:41:49.595Z,48.40
2022-12-18T20:44:22.910Z,43.20
2022-12-18T20:46:54.695Z,41.60
2022-12-18T20:49:29.378Z,44.60
2022-12-18T20:51:58.288Z,81.90
2022-12-18T20:54:27.766Z,37.10
2022-12-18T20:56:58.152Z,35.40
2022-12-18T20:59:26.562Z,68.60
2022-12-18T21:01:54.976Z,70.20
2022-12-18T21:04:23.896Z,116.00
2022-12-18T21:06:55.815Z,111.20
2022-12-18T21:09:38.078Z,107.10
2022-12-18T21:12:35.126Z,97.70
2022-12-18T21:15:12.566Z,117.60
2022-12-18T21:17:45.043Z,88.00
2022-12-18T21:20:18.025Z,74.40
2022-12-18T21:22:49.504Z,104.70
2022-12-18T21:25:26.319Z,103.60
2022-12-18T21:27:54.354Z,142.10
2022-12-18T21:30:22.707Z,114.70
2022-12-18T21:32:51.004Z,60.40
2022-12-18T21:35:19.167Z,117.30
2022-12-18T21:37:49.097Z,126.10
2022-12-18T21:40:17.241Z,115.50
2022-12-18T21:43:03.833Z,82.60
2022-12-18T21:45:31.929Z,110.30
2022-12-18T21:48:00.145Z,114.20
2022-12-18T21:53:02.943Z,38.80
2022-12-18T21:55:31.062Z,36.70
2022-12-18T21:57:59.156Z,39.10
2022-12-18T22:00:27.321Z,93.30
2022-12-18T22:03:17.404Z,77.50
2022-12-18T22:05:45.121Z,73.80
2022-12-18T22:08:13.756Z,31.70
2022-12-18T22:10:41.920Z,70.60
2022-12-18T22:13:10.159Z,55.10
2022-12-18T22:15:38.244Z,37.30
2022-12-18T22:18:06.351Z,89.10
2022-12-18T22:20:34.502Z,40.40
2022-12-18T22:23:05.822Z,82.50
2022-12-18T22:25:36.287Z,48.20
2022-12-18T22:28:27.775Z,27.60
2022-12-18T22:30:59.594Z,54.40
2022-12-18T22:33:33.376Z,111.80
2022-12-18T22:36:06.939Z,90.60
2022-12-18T22:38:35.074Z,99.40
2022-12-18T22:41:03.044Z,48.00
2022-12-18T22:43:31.190Z,74.20
2022-12-18T22:45:59.326Z,70.00
2022-12-18T22:48:27.837Z,31.10
2022-12-18T22:50:59.738Z,29.20
2022-12-18T22:53:27.988Z,25.80
2022-12-18T22:56:04.510Z,37.70
2022-12-18T22:58:35.562Z,23.90
2022-12-18T23:01:04.500Z,50.20
2022-12-18T23:03:33.768Z,45.20
2022-12-18T23:06:04.119Z,44.50
2022-12-18T23:08:33.353Z,58.60
2022-12-18T23:11:02.116Z,62.40
2022-12-18T23:13:30.211Z,73.30
2022-12-18T23:15:58.344Z,60.10
2022-12-18T23:18:26.496Z,72.90
2022-12-18T23:20:54.497Z,62.10
2022-12-18T23:23:22.653Z,25.20
2022-12-18T23:25:51.005Z,35.50
2022-12-18T23:28:19.029Z,67.40
2022-12-18T23:30:47.263Z,33.80
2022-12-18T23:33:15.444Z,19.90
2022-12-18T23:35:43.706Z,70.10
2022-12-18T23:38:11.751Z,63.30
2022-12-18T23:40:40.395Z,31.30
2022-12-18T23:43:08.510Z,35.40
2022-12-18T23:45:39.645Z,53.90
2022-12-18T23:48:07.674Z,74.70
2022-12-18T23:50:35.922Z,71.90
2022-12-18T23:53:05.544Z,70.60
2022-12-18T23:55:41.194Z,37.50
2022-12-18T23:58:20.389Z,45.00
